Time;durP1;ratioP1;P1;durP2;ratioP2;P2;SDS_P1;SDS_P2;PMS_P1;PMS_P2;Temp;Humidity;BMP_temperature;BMP_pressure;BME280_temperature;BME280_humidity;BME280_pressure;Samples;Min_cycle;Max_cycle;Signal;HPM_P1;HPM_P2
2021/08/31 00:01:01;;;;;;;8.17;7.37;;;16.80;99.90;;;;;;4998081;28;20222;-70
2021/08/31 00:03:27;;;;;;;8.07;6.87;;;16.80;99.90;;;;;;4989321;28;20221;-68
2021/08/31 00:05:52;;;;;;;8.80;7.13;;;16.80;99.90;;;;;;4987202;28;20460;-69
2021/08/31 00:08:20;;;;;;;11.47;7.77;;;16.70;99.90;;;;;;4989630;28;20232;-70
2021/08/31 00:10:46;;;;;;;9.10;6.60;;;16.70;99.90;;;;;;4987324;28;20225;-70
2021/08/31 00:13:11;;;;;;;9.90;7.90;;;16.70;99.90;;;;;;4988843;28;20461;-70
2021/08/31 00:15:37;;;;;;;8.77;7.73;;;16.60;99.90;;;;;;4982951;28;20215;-69
2021/08/31 00:18:03;;;;;;;7.10;6.10;;;16.70;99.90;;;;;;4954763;28;20222;-70
2021/08/31 00:20:29;;;;;;;6.50;5.83;;;16.60;99.90;;;;;;4953638;28;20221;-69
2021/08/31 00:22:54;;;;;;;11.93;6.47;;;16.60;99.90;;;;;;4985726;28;20225;-69
2021/08/31 00:25:20;;;;;;;7.33;6.23;;;16.70;99.90;;;;;;4989008;28;20218;-69
2021/08/31 00:27:46;;;;;;;8.47;6.17;;;16.70;99.90;;;;;;4987118;28;20224;-70
2021/08/31 00:30:12;;;;;;;6.63;6.03;;;16.60;99.90;;;;;;4989231;28;20210;-69
2021/08/31 00:32:37;;;;;;;7.17;6.33;;;16.70;99.90;;;;;;4986534;28;20233;-69
2021/08/31 00:35:04;;;;;;;12.93;7.70;;;16.70;99.90;;;;;;4990492;28;20272;-69
2021/08/31 00:37:29;;;;;;;7.40;6.30;;;16.70;99.90;;;;;;4988054;28;20301;-69
2021/08/31 00:39:55;;;;;;;8.77;6.93;;;16.70;99.90;;;;;;4986817;28;20580;-70
2021/08/31 00:42:21;;;;;;;7.50;6.27;;;16.70;99.90;;;;;;4988726;28;20272;-69
2021/08/31 00:44:47;;;;;;;6.63;6.03;;;16.70;99.90;;;;;;4970753;28;20692;-70
2021/08/31 00:47:12;;;;;;;8.90;7.23;;;16.70;99.90;;;;;;4987866;28;20297;-69
2021/08/31 00:49:38;;;;;;;10.83;6.80;;;16.60;99.90;;;;;;4981472;28;20461;-68
2021/08/31 00:52:04;;;;;;;10.30;7.00;;;16.60;99.90;;;;;;4971767;28;20593;-69
2021/08/31 00:54:30;;;;;;;6.90;5.90;;;16.60;99.90;;;;;;4963388;28;20285;-69
2021/08/31 00:57:05;;;;;;;8.67;6.90;;;16.50;99.90;;;;;;4986259;28;20458;-69
2021/08/31 00:59:34;;;;;;;9.57;6.60;;;16.40;99.90;;;;;;4988436;28;20476;-69
2021/08/31 01:02:00;;;;;;;10.37;6.80;;;16.40;99.90;;;;;;4988074;28;20985;-69
2021/08/31 01:04:27;;;;;;;10.60;7.80;;;16.40;99.90;;;;;;4988180;28;20465;-70
2021/08/31 01:06:53;;;;;;;9.33;7.00;;;16.40;99.90;;;;;;4986283;28;20464;-69
2021/08/31 01:09:26;;;;;;;10.43;7.17;;;16.30;99.90;;;;;;4988391;28;20471;-69
2021/08/31 01:11:54;;;;;;;9.63;7.87;;;16.40;99.90;;;;;;4986033;28;20461;-69
2021/08/31 01:14:20;;;;;;;9.50;7.27;;;16.40;99.90;;;;;;4986104;28;20840;-69
2021/08/31 01:16:47;;;;;;;10.63;8.10;;;16.40;99.90;;;;;;4985777;28;20564;-69
2021/08/31 01:19:14;;;;;;;10.80;8.60;;;16.30;99.90;;;;;;4988128;28;20462;-70
2021/08/31 01:21:39;;;;;;;9.30;7.73;;;16.30;99.90;;;;;;4991817;28;20471;-69
2021/08/31 01:24:05;;;;;;;8.73;7.63;;;16.20;99.90;;;;;;4998543;28;20851;-69
2021/08/31 01:26:31;;;;;;;12.63;6.93;;;16.30;99.90;;;;;;4988164;28;20218;-68
2021/08/31 01:29:00;;;;;;;9.87;7.13;;;16.30;99.90;;;;;;4986839;28;20465;-69
2021/08/31 01:31:26;;;;;;;8.60;7.30;;;16.30;99.90;;;;;;4972774;28;20210;-69
2021/08/31 01:33:51;;;;;;;11.07;7.57;;;16.30;99.90;;;;;;4985666;28;20472;-69
2021/08/31 01:36:21;;;;;;;8.23;6.47;;;16.30;99.90;;;;;;4989405;28;20245;-70
2021/08/31 01:38:52;;;;;;;8.83;7.10;;;16.20;99.90;;;;;;4985377;28;20592;-70
2021/08/31 01:41:18;;;;;;;8.27;6.57;;;16.30;99.90;;;;;;4987447;28;20460;-69
2021/08/31 01:43:45;;;;;;;6.80;6.10;;;16.20;99.90;;;;;;4985216;28;20468;-69
2021/08/31 01:46:12;;;;;;;8.30;6.47;;;16.30;99.90;;;;;;4988070;28;20484;-69
2021/08/31 01:48:38;;;;;;;8.03;7.23;;;16.20;99.90;;;;;;5005206;28;20948;-68
2021/08/31 01:51:06;;;;;;;7.73;6.67;;;16.20;99.90;;;;;;4988708;28;20468;-69
2021/08/31 01:53:32;;;;;;;6.57;5.43;;;16.30;99.90;;;;;;4983532;28;20223;-70
2021/08/31 01:55:58;;;;;;;8.33;5.67;;;16.30;99.90;;;;;;4987155;28;20469;-69
2021/08/31 01:58:24;;;;;;;11.40;7.17;;;16.20;99.90;;;;;;5003668;28;20473;-69
2021/08/31 02:00:49;;;;;;;12.33;6.20;;;16.10;99.90;;;;;;4985157;28;20214;-69
2021/08/31 02:03:15;;;;;;;8.30;6.37;;;16.10;99.90;;;;;;4987069;28;20222;-69
2021/08/31 02:05:41;;;;;;;6.30;5.40;;;16.10;99.90;;;;;;4985226;28;20249;-69
2021/08/31 02:08:06;;;;;;;7.37;6.27;;;16.10;99.90;;;;;;4987123;28;20218;-69
2021/08/31 02:10:32;;;;;;;7.90;5.60;;;16.10;99.90;;;;;;4984907;28;20691;-70
2021/08/31 02:12:58;;;;;;;18.53;6.57;;;16.10;99.90;;;;;;4986852;28;20280;-70
2021/08/31 02:15:24;;;;;;;7.50;5.83;;;16.10;99.90;;;;;;4988437;28;20464;-69
2021/08/31 02:17:49;;;;;;;7.37;6.50;;;16.10;99.90;;;;;;4985223;28;20214;-69
2021/08/31 02:20:15;;;;;;;6.10;5.00;;;16.10;99.90;;;;;;4987180;28;20230;-69
2021/08/31 02:22:41;;;;;;;7.70;6.97;;;16.10;99.90;;;;;;4992001;28;20220;-69
2021/08/31 02:25:09;;;;;;;6.00;5.40;;;16.10;99.90;;;;;;4986765;28;20464;-70
2021/08/31 02:27:35;;;;;;;6.53;5.43;;;16.10;99.90;;;;;;4985001;28;20536;-68
2021/08/31 02:30:02;;;;;;;9.33;6.90;;;16.10;99.90;;;;;;4987058;28;20556;-69
2021/08/31 02:32:27;;;;;;;7.63;5.43;;;16.10;99.90;;;;;;5002870;28;20252;-68
2021/08/31 02:34:53;;;;;;;7.77;6.10;;;16.10;99.90;;;;;;4985061;28;20469;-69
2021/08/31 02:37:19;;;;;;;7.00;5.90;;;16.10;99.90;;;;;;4987155;28;20667;-69
2021/08/31 02:39:44;;;;;;;6.67;5.60;;;16.00;99.90;;;;;;4983951;28;20585;-69
2021/08/31 02:42:10;;;;;;;7.87;5.83;;;16.00;99.90;;;;;;4986377;28;20228;-69
2021/08/31 02:44:36;;;;;;;7.37;6.23;;;16.00;99.90;;;;;;4984500;28;20324;-69
2021/08/31 02:47:01;;;;;;;7.30;6.50;;;16.00;99.90;;;;;;4994493;28;20277;-69
2021/08/31 02:49:27;;;;;;;7.17;6.17;;;16.00;99.90;;;;;;4994224;28;20622;-70
2021/08/31 02:51:53;;;;;;;7.40;6.50;;;15.90;99.90;;;;;;4949682;28;20262;-69
2021/08/31 02:54:18;;;;;;;7.70;6.27;;;15.90;99.90;;;;;;5001093;28;20222;-69
2021/08/31 02:56:44;;;;;;;10.57;6.90;;;15.90;99.90;;;;;;4984092;28;20325;-69
2021/08/31 02:59:10;;;;;;;10.60;7.00;;;15.90;99.90;;;;;;5002791;28;20225;-69
2021/08/31 03:02:04;;;;;;;9.43;7.33;;;15.80;99.90;;;;;;4968086;28;20577;-69
2021/08/31 03:04:24;;;;;;;99.00;52.23;;;15.80;99.90;;;;;;4987866;28;20221;-69
2021/08/31 03:06:50;;;;;;;43.40;27.93;;;15.80;99.90;;;;;;4968691;28;20469;-69
2021/08/31 03:09:15;;;;;;;18.23;13.40;;;15.80;99.90;;;;;;4986519;28;20224;-69
2021/08/31 03:11:41;;;;;;;11.60;9.20;;;15.80;99.90;;;;;;4968018;28;20213;-68
2021/08/31 03:14:07;;;;;;;9.10;7.70;;;15.80;99.90;;;;;;4986660;28;20303;-69
2021/08/31 03:16:32;;;;;;;11.80;7.80;;;15.80;99.90;;;;;;4986194;28;20226;-69
2021/08/31 03:18:58;;;;;;;9.60;6.87;;;15.80;99.90;;;;;;4987973;28;20230;-69
2021/08/31 03:21:24;;;;;;;8.87;7.20;;;15.70;99.90;;;;;;4978057;28;20225;-69
2021/08/31 03:23:50;;;;;;;9.80;7.60;;;15.80;99.90;;;;;;4954814;28;20989;-69
2021/08/31 03:26:16;;;;;;;9.80;7.00;;;15.80;99.90;;;;;;4968440;28;20309;-69
2021/08/31 03:28:42;;;;;;;8.30;6.73;;;15.70;99.90;;;;;;4965112;28;20225;-69
2021/08/31 03:31:08;;;;;;;8.97;7.10;;;15.70;99.90;;;;;;4999867;28;20280;-69
2021/08/31 03:33:33;;;;;;;10.40;8.37;;;15.70;99.90;;;;;;4981070;28;20221;-69
2021/08/31 03:35:59;;;;;;;8.00;6.63;;;15.70;99.90;;;;;;4998391;28;20867;-70
2021/08/31 03:38:25;;;;;;;10.23;7.20;;;15.70;99.90;;;;;;4989125;28;20309;-69
2021/08/31 03:40:51;;;;;;;9.70;7.67;;;15.60;99.90;;;;;;4987696;28;20225;-69
2021/08/31 03:43:17;;;;;;;9.73;6.63;;;15.60;99.90;;;;;;4989719;28;20526;-69
2021/08/31 03:45:42;;;;;;;9.03;7.37;;;15.60;99.90;;;;;;4987858;28;20373;-68
2021/08/31 03:48:08;;;;;;;8.70;7.37;;;15.60;99.90;;;;;;4990728;28;20222;-69
2021/08/31 03:50:34;;;;;;;8.57;7.23;;;15.60;99.90;;;;;;4975077;28;20206;-69
2021/08/31 03:52:59;;;;;;;11.27;7.53;;;15.50;99.90;;;;;;4988611;28;20755;-69
2021/08/31 03:55:25;;;;;;;13.40;8.03;;;15.50;99.90;;;;;;4973241;28;20213;-69
2021/08/31 03:57:50;;;;;;;11.10;7.17;;;15.50;99.90;;;;;;4987919;28;20226;-69
2021/08/31 04:00:17;;;;;;;8.43;7.53;;;15.50;99.90;;;;;;4989534;28;20261;-69
2021/08/31 04:02:43;;;;;;;9.50;7.67;;;15.50;99.90;;;;;;4986989;28;20718;-69
2021/08/31 04:05:09;;;;;;;8.30;7.40;;;15.50;99.90;;;;;;4989621;28;20487;-69
2021/08/31 04:07:35;;;;;;;8.50;7.13;;;15.50;99.90;;;;;;4985682;28;20461;-68
2021/08/31 04:10:00;;;;;;;11.33;8.40;;;15.50;99.90;;;;;;4993824;28;20607;-71
2021/08/31 04:12:26;;;;;;;8.93;7.47;;;15.50;99.90;;;;;;4993514;28;20241;-69
2021/08/31 04:14:52;;;;;;;12.43;8.37;;;15.40;99.90;;;;;;4992363;28;20233;-69
2021/08/31 04:17:17;;;;;;;10.33;8.07;;;15.50;99.90;;;;;;4975898;28;20229;-69
2021/08/31 04:19:43;;;;;;;11.60;8.20;;;15.50;99.90;;;;;;4991972;28;20233;-69
2021/08/31 04:22:09;;;;;;;11.10;8.27;;;15.40;99.90;;;;;;5001954;28;20224;-69
2021/08/31 04:24:36;;;;;;;9.93;7.50;;;15.50;99.90;;;;;;5011512;28;20220;-69
2021/08/31 04:27:02;;;;;;;11.03;8.80;;;15.40;99.90;;;;;;5007587;28;20543;-69
2021/08/31 04:29:28;;;;;;;11.10;8.17;;;15.40;99.90;;;;;;4992446;28;20465;-69
2021/08/31 04:31:53;;;;;;;10.57;8.20;;;15.40;99.90;;;;;;4991112;28;20456;-69
2021/08/31 04:34:19;;;;;;;11.60;8.20;;;15.30;99.90;;;;;;4992002;28;20285;-69
2021/08/31 04:36:45;;;;;;;10.33;8.00;;;15.40;99.90;;;;;;4991828;28;20591;-69
2021/08/31 04:39:10;;;;;;;12.10;7.97;;;15.30;99.90;;;;;;4992209;28;20240;-69
2021/08/31 04:41:36;;;;;;;12.50;8.63;;;15.40;99.90;;;;;;4974631;28;20228;-69
2021/08/31 04:44:01;;;;;;;10.30;7.90;;;15.30;99.90;;;;;;4991307;28;20280;-69
2021/08/31 04:46:27;;;;;;;9.57;7.70;;;15.40;99.90;;;;;;4996263;28;20216;-69
2021/08/31 04:48:53;;;;;;;11.30;8.80;;;15.40;99.90;;;;;;5010540;28;20709;-69
2021/08/31 04:51:18;;;;;;;10.10;7.80;;;15.40;99.90;;;;;;4975760;28;20229;-70
2021/08/31 04:53:44;;;;;;;11.17;7.60;;;15.40;99.90;;;;;;4990630;28;20221;-69
2021/08/31 04:56:09;;;;;;;11.90;8.17;;;15.40;99.90;;;;;;4992377;28;20287;-70
2021/08/31 04:58:35;;;;;;;10.20;8.10;;;15.40;99.90;;;;;;4991346;28;20827;-69
2021/08/31 05:01:01;;;;;;;11.07;7.87;;;15.50;99.90;;;;;;4991953;28;20225;-69
2021/08/31 05:03:27;;;;;;;17.23;8.60;;;15.50;99.90;;;;;;4991274;28;20218;-69
2021/08/31 05:05:52;;;;;;;12.70;8.73;;;15.40;99.90;;;;;;4991146;28;20214;-69
2021/08/31 05:08:18;;;;;;;11.23;8.30;;;15.40;99.90;;;;;;4991787;28;20772;-69
2021/08/31 05:10:44;;;;;;;12.47;8.57;;;15.40;99.90;;;;;;4990580;28;20213;-69
2021/08/31 05:13:10;;;;;;;11.10;8.07;;;15.40;99.90;;;;;;4991095;28;20226;-70
2021/08/31 05:15:37;;;;;;;12.50;8.60;;;15.40;99.90;;;;;;4974984;28;21040;-69
2021/08/31 05:18:04;;;;;;;10.00;7.63;;;15.40;99.90;;;;;;4992644;28;20218;-69
2021/08/31 05:20:29;;;;;;;13.60;8.50;;;15.40;99.90;;;;;;4987309;28;20477;-69
2021/08/31 05:22:55;;;;;;;11.80;7.83;;;15.40;99.90;;;;;;5010160;28;20961;-69
2021/08/31 05:25:21;;;;;;;9.53;7.33;;;15.40;99.90;;;;;;4991457;28;20225;-69
2021/08/31 05:27:47;;;;;;;9.83;7.67;;;15.40;99.90;;;;;;4990794;28;20222;-69
2021/08/31 05:30:13;;;;;;;9.60;7.80;;;15.40;99.90;;;;;;4985443;28;20218;-69
2021/08/31 05:32:39;;;;;;;9.53;7.47;;;15.40;99.90;;;;;;4989764;28;20777;-68
2021/08/31 05:35:05;;;;;;;9.67;7.20;;;15.40;99.90;;;;;;4990145;28;20229;-69
2021/08/31 05:37:31;;;;;;;9.90;7.40;;;15.30;99.90;;;;;;4989074;28;20982;-70
2021/08/31 05:39:56;;;;;;;9.40;8.10;;;15.40;99.90;;;;;;4987353;28;20473;-70
2021/08/31 05:42:22;;;;;;;9.40;7.10;;;15.40;99.90;;;;;;4989361;28;20222;-69
2021/08/31 05:44:48;;;;;;;10.23;7.03;;;15.40;99.90;;;;;;4987628;28;20611;-69
2021/08/31 05:47:13;;;;;;;10.90;7.87;;;15.40;99.90;;;;;;4973780;28;20241;-69
2021/08/31 05:49:40;;;;;;;9.57;7.67;;;15.40;99.90;;;;;;5000784;28;20312;-70
2021/08/31 05:52:06;;;;;;;9.10;7.50;;;15.40;99.90;;;;;;4988652;28;20699;-69
2021/08/31 05:54:32;;;;;;;9.83;7.30;;;15.40;99.90;;;;;;4987779;28;20480;-70
2021/08/31 05:57:04;;;;;;;10.37;7.80;;;15.40;99.90;;;;;;4989069;28;20496;-69
2021/08/31 05:59:29;;;;;;;8.37;7.47;;;15.40;99.90;;;;;;4987581;28;20691;-70
2021/08/31 06:01:55;;;;;;;13.03;8.00;;;15.40;99.90;;;;;;4986604;28;20461;-69
2021/08/31 06:04:22;;;;;;;10.77;7.10;;;15.40;99.90;;;;;;4972898;28;20252;-69
2021/08/31 06:06:49;;;;;;;11.63;7.43;;;15.40;99.90;;;;;;4988242;28;20229;-69
2021/08/31 06:09:15;;;;;;;8.73;6.20;;;15.40;99.90;;;;;;4988223;28;20477;-70
2021/08/31 06:11:40;;;;;;;10.00;7.77;;;15.40;99.90;;;;;;4987622;28;20978;-69
2021/08/31 06:14:07;;;;;;;10.43;7.80;;;15.40;99.90;;;;;;4988999;28;20283;-70
2021/08/31 06:16:33;;;;;;;8.40;6.83;;;15.50;99.90;;;;;;4988018;28;20225;-69
2021/08/31 06:19:00;;;;;;;9.00;6.57;;;15.50;99.90;;;;;;4987419;28;20480;-70
2021/08/31 06:21:26;;;;;;;8.80;6.93;;;15.60;99.90;;;;;;4990323;28;20492;-69
2021/08/31 06:23:51;;;;;;;7.60;6.50;;;15.60;99.90;;;;;;4990808;28;20460;-70
2021/08/31 06:26:17;;;;;;;9.63;6.40;;;15.60;99.90;;;;;;5008312;28;20229;-70
2021/08/31 06:28:43;;;;;;;7.10;6.30;;;15.60;99.90;;;;;;5007791;28;20221;-70
2021/08/31 06:31:09;;;;;;;8.80;6.50;;;15.70;99.90;;;;;;5003222;28;20214;-69
2021/08/31 06:33:34;;;;;;;8.73;6.20;;;15.70;99.90;;;;;;4987048;28;20222;-69
2021/08/31 06:36:00;;;;;;;7.30;5.90;;;15.70;99.90;;;;;;4988413;28;20217;-70
2021/08/31 06:38:26;;;;;;;6.90;5.80;;;15.70;99.90;;;;;;4988611;28;20233;-69
2021/08/31 06:40:51;;;;;;;6.17;5.57;;;15.80;99.90;;;;;;4971206;28;20227;-69
2021/08/31 06:43:17;;;;;;;5.80;4.63;;;15.80;99.90;;;;;;5002091;28;20245;-70
2021/08/31 06:45:44;;;;;;;6.70;5.23;;;15.90;99.90;;;;;;4992043;28;20295;-70
2021/08/31 06:48:10;;;;;;;8.17;6.03;;;15.90;99.90;;;;;;5007622;28;20231;-69
2021/08/31 06:50:35;;;;;;;6.00;5.40;;;15.90;99.90;;;;;;4992510;28;20449;-70
2021/08/31 06:53:01;;;;;;;5.77;5.03;;;16.00;99.90;;;;;;4987198;28;20457;-70
2021/08/31 06:55:27;;;;;;;6.30;4.60;;;16.00;99.90;;;;;;4986802;28;20550;-70
2021/08/31 06:57:53;;;;;;;7.87;5.47;;;16.00;99.90;;;;;;4987292;28;20594;-70
2021/08/31 07:00:19;;;;;;;5.70;4.70;;;16.00;99.90;;;;;;4984400;28;20692;-70
2021/08/31 07:02:44;;;;;;;5.43;4.63;;;16.10;99.90;;;;;;4967502;28;20285;-70
2021/08/31 07:05:11;;;;;;;5.93;5.27;;;16.10;99.90;;;;;;4968418;28;20226;-70
2021/08/31 07:07:37;;;;;;;10.30;5.13;;;16.20;99.90;;;;;;4967921;28;20218;-69
2021/08/31 07:10:04;;;;;;;6.10;5.40;;;16.20;99.90;;;;;;4980422;28;20532;-69
2021/08/31 07:12:29;;;;;;;7.00;4.90;;;16.30;99.90;;;;;;4989463;28;20237;-69
2021/08/31 07:14:57;;;;;;;5.63;5.10;;;16.30;99.90;;;;;;4990702;28;20472;-70
2021/08/31 07:17:23;;;;;;;5.00;4.50;;;16.40;99.90;;;;;;4991853;28;20224;-70
2021/08/31 07:19:49;;;;;;;5.63;5.03;;;16.50;99.90;;;;;;4975281;28;20469;-70
2021/08/31 07:22:17;;;;;;;8.27;5.10;;;16.50;99.90;;;;;;5000598;28;20749;-70
2021/08/31 07:24:44;;;;;;;7.73;4.70;;;16.60;99.90;;;;;;4998334;28;20691;-70
2021/08/31 07:27:10;;;;;;;5.50;4.53;;;16.70;99.90;;;;;;4975735;28;20461;-69
2021/08/31 07:29:36;;;;;;;5.47;4.97;;;16.70;99.90;;;;;;4955930;28;20489;-71
2021/08/31 07:32:03;;;;;;;5.27;4.77;;;16.90;99.90;;;;;;4956003;28;20477;-70
2021/08/31 07:34:29;;;;;;;4.97;4.47;;;16.90;99.90;;;;;;4973300;28;20678;-70
2021/08/31 07:36:55;;;;;;;7.60;4.40;;;17.00;99.90;;;;;;4991248;28;20457;-70
2021/08/31 07:39:22;;;;;;;6.20;5.20;;;17.10;99.90;;;;;;4991732;28;20268;-70
2021/08/31 07:41:48;;;;;;;5.30;4.73;;;17.10;99.90;;;;;;4990233;28;20489;-69
2021/08/31 07:44:14;;;;;;;5.40;4.30;;;17.10;99.90;;;;;;4991156;28;20457;-70
2021/08/31 07:46:45;;;;;;;6.40;4.80;;;17.20;99.90;;;;;;4995617;28;20523;-69
2021/08/31 07:49:14;;;;;;;6.03;4.83;;;17.10;99.90;;;;;;4990049;28;20453;-71
2021/08/31 07:51:40;;;;;;;6.17;4.43;;;17.30;99.90;;;;;;4989193;28;20707;-69
2021/08/31 07:54:07;;;;;;;5.40;4.27;;;17.30;99.90;;;;;;4990783;28;20467;-69
2021/08/31 07:56:32;;;;;;;6.53;5.07;;;17.40;99.90;;;;;;4989065;28;20558;-69
2021/08/31 07:58:58;;;;;;;5.03;4.50;;;17.40;99.90;;;;;;4990659;28;20469;-70
2021/08/31 08:01:24;;;;;;;5.63;4.20;;;17.40;99.90;;;;;;4990713;28;20695;-69
2021/08/31 08:03:50;;;;;;;4.70;4.20;;;17.40;99.90;;;;;;4990630;28;20229;-70
2021/08/31 08:06:15;;;;;;;5.00;4.50;;;17.50;99.90;;;;;;4991548;28;20225;-71
2021/08/31 08:08:41;;;;;;;12.20;4.47;;;17.50;99.90;;;;;;4991175;28;20634;-70
2021/08/31 08:11:07;;;;;;;4.63;3.90;;;17.50;99.90;;;;;;4981892;28;20268;-71
2021/08/31 08:13:33;;;;;;;4.93;4.17;;;17.50;99.90;;;;;;4989841;28;20210;-71
2021/08/31 08:15:59;;;;;;;5.10;4.40;;;17.50;99.90;;;;;;4989994;28;20460;-70
2021/08/31 08:18:25;;;;;;;4.67;3.70;;;17.50;99.90;;;;;;4991202;28;20634;-71
2021/08/31 08:20:50;;;;;;;4.67;4.20;;;17.50;99.90;;;;;;4990510;28;20233;-71
2021/08/31 08:23:16;;;;;;;5.80;5.07;;;17.60;99.90;;;;;;5007832;28;20742;-71
2021/08/31 08:25:42;;;;;;;5.00;4.27;;;17.60;99.90;;;;;;5010277;28;20221;-70
2021/08/31 08:28:09;;;;;;;4.97;4.13;;;17.60;99.90;;;;;;4994671;28;20251;-70
2021/08/31 08:30:34;;;;;;;5.47;3.87;;;17.60;99.90;;;;;;5010473;28;20274;-72
2021/08/31 08:33:00;;;;;;;4.63;4.10;;;17.70;99.90;;;;;;5010211;28;20863;-69
2021/08/31 08:35:26;;;;;;;4.53;4.13;;;17.70;99.90;;;;;;4991491;28;20236;-70
2021/08/31 08:37:52;;;;;;;5.40;4.23;;;17.70;99.90;;;;;;4954969;28;24954;-69
2021/08/31 08:40:18;;;;;;;4.53;4.10;;;17.70;99.90;;;;;;4954934;28;20245;-69
2021/08/31 08:42:44;;;;;;;4.43;3.53;;;17.70;99.90;;;;;;4953937;28;20215;-69
2021/08/31 08:45:10;;;;;;;4.87;4.37;;;17.70;99.90;;;;;;4959353;28;20467;-69
2021/08/31 08:47:36;;;;;;;5.20;4.10;;;17.80;99.90;;;;;;4969938;28;20253;-68
2021/08/31 08:50:02;;;;;;;5.87;4.23;;;17.80;99.90;;;;;;4986970;28;20469;-70
2021/08/31 08:52:28;;;;;;;5.97;4.30;;;17.80;99.90;;;;;;4969596;28;20283;-69
2021/08/31 08:54:54;;;;;;;5.50;4.40;;;17.80;99.90;;;;;;4986321;28;20472;-70
2021/08/31 08:57:25;;;;;;;4.00;3.63;;;17.90;99.90;;;;;;4987514;28;20228;-71
2021/08/31 08:59:51;;;;;;;5.00;4.50;;;17.90;99.90;;;;;;4986635;28;20218;-70
2021/08/31 09:02:39;;;;;;;5.53;4.03;;;18.00;99.90;;;;;;4987451;28;20511;-70
2021/08/31 09:05:10;;;;;;;4.33;3.93;;;18.10;99.90;;;;;;4987770;28;20230;-70
2021/08/31 09:07:38;;;;;;;4.20;3.80;;;18.10;99.90;;;;;;4985549;28;20985;-68
2021/08/31 09:10:19;;;;;;;4.20;3.77;;;18.10;99.90;;;;;;4988348;28;20457;-70
2021/08/31 09:12:47;;;;;;;4.40;3.87;;;18.20;99.90;;;;;;4973895;28;20537;-70
2021/08/31 09:15:28;;;;;;;5.30;4.00;;;18.20;99.90;;;;;;4985897;28;20464;-70
2021/08/31 09:18:10;;;;;;;5.77;4.20;;;18.20;99.90;;;;;;4988075;28;20461;-69
2021/08/31 09:20:53;;;;;;;5.50;4.07;;;18.20;99.90;;;;;;4985222;28;20896;-70
2021/08/31 09:23:28;;;;;;;4.40;4.00;;;18.20;99.90;;;;;;4989459;28;20461;-70
2021/08/31 09:25:56;;;;;;;3.67;3.37;;;18.30;99.90;;;;;;4989348;28;20451;-70
2021/08/31 09:28:23;;;;;;;4.07;3.30;;;18.40;99.90;;;;;;4989371;28;20521;-70
2021/08/31 09:31:20;;;;;;;4.33;3.80;;;18.40;99.90;;;;;;4973481;28;20970;-70
2021/08/31 09:33:51;;;;;;;4.40;3.90;;;18.40;99.90;;;;;;4971097;28;21004;-70
2021/08/31 09:36:22;;;;;;;4.50;4.10;;;18.50;99.90;;;;;;4989037;28;20449;-69
2021/08/31 09:38:53;;;;;;;5.27;4.53;;;18.50;99.90;;;;;;4989172;28;21016;-70
2021/08/31 09:41:37;;;;;;;5.50;4.10;;;18.60;99.90;;;;;;4972600;28;20525;-69
2021/08/31 09:44:22;;;;;;;4.57;4.07;;;18.60;99.90;;;;;;4972468;28;20994;-70
2021/08/31 09:46:49;;;;;;;5.27;4.40;;;18.70;99.90;;;;;;4980138;28;20534;-70
2021/08/31 09:49:19;;;;;;;6.50;4.47;;;18.70;99.90;;;;;;4989448;28;20503;-68
2021/08/31 09:52:17;;;;;;;4.50;4.10;;;18.80;99.90;;;;;;4972208;28;20880;-69
2021/08/31 09:54:48;;;;;;;4.93;4.03;;;18.90;99.90;;;;;;4966513;28;20449;-70
2021/08/31 09:57:38;;;;;;;4.63;4.20;;;19.00;99.90;;;;;;4988179;28;20457;-70
2021/08/31 10:00:09;;;;;;;5.50;4.37;;;19.10;99.90;;;;;;4984736;28;20465;-70
2021/08/31 10:02:36;;;;;;;7.60;3.80;;;19.20;99.90;;;;;;4985843;28;20454;-69
2021/08/31 10:05:04;;;;;;;6.00;4.63;;;19.20;99.90;;;;;;4986961;28;20850;-70
2021/08/31 10:07:31;;;;;;;3.93;3.63;;;19.30;99.90;;;;;;4987193;28;20480;-69
2021/08/31 10:10:00;;;;;;;5.27;4.20;;;19.40;99.90;;;;;;4986352;28;20527;-69
2021/08/31 10:12:29;;;;;;;4.87;4.03;;;19.50;99.90;;;;;;4986102;28;20468;-70
2021/08/31 10:14:56;;;;;;;5.43;4.60;;;19.50;99.90;;;;;;4985878;28;21172;-70
2021/08/31 10:17:27;;;;;;;4.70;4.30;;;19.50;99.90;;;;;;4986169;28;20453;-70
2021/08/31 10:19:56;;;;;;;4.97;4.47;;;19.50;99.90;;;;;;4985385;28;20473;-70
2021/08/31 10:22:23;;;;;;;4.60;4.20;;;19.50;99.90;;;;;;4996599;28;20461;-70
2021/08/31 10:24:50;;;;;;;4.33;3.90;;;19.60;99.90;;;;;;5005886;28;20515;-70
2021/08/31 10:27:53;;;;;;;5.97;4.33;;;19.60;99.90;;;;;;5006416;28;20491;-70
2021/08/31 10:30:19;;;;;;;4.73;4.20;;;19.70;99.90;;;;;;4951033;28;20861;-70
2021/08/31 10:32:49;;;;;;;5.10;4.17;;;19.70;99.90;;;;;;4998395;28;20444;-71
2021/08/31 10:35:39;;;;;;;4.97;3.80;;;19.70;99.90;;;;;;4995350;28;20492;-72
2021/08/31 10:38:10;;;;;;;4.93;4.43;;;19.70;99.90;;;;;;4987457;28;20463;-70
2021/08/31 10:40:46;;;;;;;4.73;4.33;;;19.70;99.90;;;;;;4986590;28;20457;-70
2021/08/31 10:43:13;;;;;;;5.63;4.73;;;19.70;99.90;;;;;;4986249;28;20453;-70
2021/08/31 10:45:40;;;;;;;5.93;4.20;;;19.80;99.90;;;;;;4984314;28;20440;-70
2021/08/31 10:48:24;;;;;;;4.27;3.67;;;19.80;99.90;;;;;;4994525;28;20490;-69
2021/08/31 10:51:00;;;;;;;5.30;3.90;;;19.80;99.90;;;;;;4964754;28;20445;-71
2021/08/31 10:53:48;;;;;;;7.30;4.80;;;19.70;99.90;;;;;;4984833;28;20493;-70
2021/08/31 10:56:20;;;;;;;5.40;4.47;;;19.80;99.90;;;;;;4985430;28;20450;-71
2021/08/31 10:58:47;;;;;;;5.70;4.43;;;19.80;99.90;;;;;;4985942;28;20472;-70
2021/08/31 11:01:15;;;;;;;4.63;4.10;;;19.80;99.90;;;;;;4984885;28;20511;-70
2021/08/31 11:03:41;;;;;;;6.97;4.87;;;19.80;99.90;;;;;;4984562;28;20464;-70
2021/08/31 11:06:22;;;;;;;8.93;4.93;;;19.90;99.90;;;;;;4986490;28;20457;-70
2021/08/31 11:09:11;;;;;;;5.27;4.13;;;20.00;99.90;;;;;;4985522;28;20585;-70
2021/08/31 11:11:42;;;;;;;4.13;3.80;;;20.00;99.90;;;;;;4981324;28;20441;-71
2021/08/31 11:14:08;;;;;;;5.50;5.00;;;20.10;99.90;;;;;;4986047;28;20988;-70
2021/08/31 11:16:36;;;;;;;5.23;4.53;;;20.10;99.90;;;;;;4969718;28;20535;-70
2021/08/31 11:19:21;;;;;;;6.10;5.43;;;20.10;99.90;;;;;;4986067;28;20234;-70
2021/08/31 11:21:48;;;;;;;6.03;4.87;;;20.10;99.90;;;;;;4990831;28;20455;-70
2021/08/31 11:24:13;;;;;;;5.77;4.83;;;20.10;99.90;;;;;;4991783;28;20473;-70
2021/08/31 11:26:39;;;;;;;5.27;4.77;;;20.20;99.90;;;;;;4984606;28;20475;-71
2021/08/31 11:29:11;;;;;;;5.33;4.80;;;20.30;99.90;;;;;;4985665;28;20229;-70
2021/08/31 11:31:37;;;;;;;5.77;5.07;;;20.40;99.90;;;;;;4985132;28;20364;-70
2021/08/31 11:34:10;;;;;;;5.27;4.80;;;20.50;99.90;;;;;;4985686;28;20499;-70
2021/08/31 11:36:38;;;;;;;5.43;4.93;;;20.40;99.90;;;;;;4985465;28;20472;-69
2021/08/31 11:39:06;;;;;;;5.90;5.30;;;20.40;99.90;;;;;;4985116;28;20469;-70
2021/08/31 11:41:43;;;;;;;5.20;4.70;;;20.40;99.90;;;;;;4984775;28;20449;-70
2021/08/31 11:44:21;;;;;;;5.10;4.37;;;20.40;99.90;;;;;;4968498;28;20476;-70
2021/08/31 11:46:49;;;;;;;6.50;4.30;;;20.50;99.90;;;;;;4984744;28;20453;-70
2021/08/31 11:49:17;;;;;;;4.00;3.63;;;20.40;99.90;;;;;;4999477;28;20835;-70
2021/08/31 11:52:08;;;;;;;4.77;4.30;;;20.40;99.90;;;;;;4984124;28;20995;-71
2021/08/31 11:54:39;;;;;;;4.70;4.30;;;20.50;99.90;;;;;;4984618;28;20970;-71
2021/08/31 11:57:07;;;;;;;4.90;4.40;;;20.50;99.90;;;;;;4985749;28;20549;-70
2021/08/31 11:59:33;;;;;;;5.53;4.50;;;20.50;99.90;;;;;;4986171;28;20485;-71
2021/08/31 12:02:09;;;;;;;4.97;4.50;;;20.50;99.90;;;;;;4957905;28;20473;-70
2021/08/31 12:04:35;;;;;;;4.47;4.07;;;20.50;99.90;;;;;;4988474;28;20232;-70
2021/08/31 12:07:01;;;;;;;4.97;4.50;;;20.60;99.90;;;;;;4990618;28;20456;-71
2021/08/31 12:09:27;;;;;;;5.83;4.70;;;20.70;99.90;;;;;;4990822;28;20407;-70
2021/08/31 12:11:54;;;;;;;5.20;4.60;;;20.80;99.90;;;;;;4989811;28;20474;-71
2021/08/31 12:14:20;;;;;;;5.40;4.90;;;20.90;99.90;;;;;;4990643;28;21019;-70
2021/08/31 12:16:47;;;;;;;5.70;5.10;;;21.10;99.90;;;;;;4990462;28;20560;-70
2021/08/31 12:19:16;;;;;;;6.13;4.70;;;21.10;99.90;;;;;;4989977;28;20460;-70
2021/08/31 12:21:42;;;;;;;4.97;4.53;;;21.20;99.90;;;;;;4990162;28;20469;-70
2021/08/31 12:24:13;;;;;;;5.90;4.93;;;21.10;99.90;;;;;;4999230;28;20468;-70
2021/08/31 12:26:39;;;;;;;4.83;4.43;;;20.90;99.90;;;;;;5010182;28;20768;-70
2021/08/31 12:29:10;;;;;;;6.17;5.57;;;20.70;99.90;;;;;;5010439;28;20487;-71
2021/08/31 12:31:38;;;;;;;6.63;6.03;;;20.80;99.90;;;;;;5009514;28;20257;-70
2021/08/31 12:34:28;;;;;;;6.10;5.60;;;20.70;99.90;;;;;;5010105;28;20467;-70
2021/08/31 12:36:54;;;;;;;7.77;5.50;;;20.70;99.90;;;;;;4992317;28;20953;-70
2021/08/31 12:39:25;;;;;;;5.83;4.87;;;20.80;99.90;;;;;;4990489;28;20600;-70
2021/08/31 12:41:52;;;;;;;5.73;5.20;;;20.80;99.90;;;;;;4989484;28;20225;-71
2021/08/31 12:44:21;;;;;;;6.57;5.90;;;20.70;99.90;;;;;;4990438;28;20453;-70
2021/08/31 12:46:48;;;;;;;6.63;5.83;;;20.70;99.90;;;;;;4988503;28;21109;-71
2021/08/31 12:49:17;;;;;;;7.10;5.50;;;20.60;99.90;;;;;;4989688;28;20540;-70